Time;durP1;ratioP1;P1;durP2;ratioP2;P2;SDS_P1;SDS_P2;PMS_P1;PMS_P2;Temp;Humidity;BMP_temperature;BMP_pressure;BME280_temperature;BME280_humidity;BME280_pressure;Samples;Min_cycle;Max_cycle;Signal;HPM_P1;HPM_P2
2022/03/21 00:01:22;;;;;;;166.70;81.50;;;2.60;87.20;;;;;;5114892;28;20563;-65
2022/03/21 00:03:50;;;;;;;166.90;79.03;;;2.60;87.40;;;;;;5114425;28;20203;-66
2022/03/21 00:06:17;;;;;;;150.93;73.50;;;2.60;87.40;;;;;;5114337;28;20223;-65
2022/03/21 00:08:45;;;;;;;163.80;76.40;;;2.60;87.60;;;;;;5114314;28;20199;-65
2022/03/21 00:11:12;;;;;;;159.63;73.93;;;2.60;87.80;;;;;;5114562;28;20231;-65
2022/03/21 00:13:40;;;;;;;158.53;71.43;;;2.60;87.70;;;;;;5114470;28;20279;-65
2022/03/21 00:16:07;;;;;;;154.60;74.83;;;2.60;87.60;;;;;;5114315;28;20225;-66
2022/03/21 00:18:35;;;;;;;162.37;82.07;;;2.60;87.70;;;;;;5114545;28;20211;-65
2022/03/21 00:21:03;;;;;;;195.97;96.53;;;2.60;87.60;;;;;;5114370;28;20659;-66
2022/03/21 00:23:31;;;;;;;183.67;92.57;;;2.60;87.90;;;;;;5114389;28;20207;-66
2022/03/21 00:25:58;;;;;;;182.13;86.47;;;2.60;88.30;;;;;;5113975;28;20211;-66
2022/03/21 00:28:25;;;;;;;161.57;79.10;;;2.60;88.50;;;;;;5114067;28;20203;-66
2022/03/21 00:30:53;;;;;;;164.13;82.13;;;2.60;88.40;;;;;;5114071;28;20682;-65
2022/03/21 00:33:20;;;;;;;166.90;79.87;;;2.50;88.40;;;;;;5114304;28;20211;-65
2022/03/21 00:35:50;;;;;;;156.83;74.97;;;2.50;88.50;;;;;;5113646;28;20214;-66
2022/03/21 00:38:19;;;;;;;169.67;81.27;;;2.50;89.00;;;;;;5113851;28;20287;-64
2022/03/21 00:40:48;;;;;;;158.40;75.60;;;2.40;89.10;;;;;;5113665;28;20211;-65
2022/03/21 00:43:16;;;;;;;142.10;72.57;;;2.40;89.50;;;;;;5114111;28;20664;-65
2022/03/21 00:45:43;;;;;;;136.40;68.70;;;2.40;89.80;;;;;;5113435;28;20260;-67
2022/03/21 00:48:10;;;;;;;144.40;68.90;;;2.40;89.80;;;;;;5113711;28;20199;-66
2022/03/21 00:50:37;;;;;;;145.33;72.17;;;2.40;89.80;;;;;;5113772;28;20667;-66
2022/03/21 00:53:04;;;;;;;149.83;73.70;;;2.30;89.90;;;;;;5113740;28;20219;-65
2022/03/21 00:55:33;;;;;;;152.53;76.77;;;2.30;89.80;;;;;;5113841;28;20226;-66
2022/03/21 00:58:00;;;;;;;164.27;80.57;;;2.30;90.00;;;;;;5113377;28;20214;-66
2022/03/21 01:00:30;;;;;;;173.83;83.20;;;2.30;90.10;;;;;;5113419;28;20207;-65
2022/03/21 01:02:59;;;;;;;166.30;82.40;;;2.20;90.20;;;;;;5113203;28;20214;-65
2022/03/21 01:05:27;;;;;;;163.73;79.00;;;2.20;90.50;;;;;;5113191;28;20230;-66
2022/03/21 01:07:54;;;;;;;169.93;77.97;;;2.10;90.60;;;;;;5113180;28;20231;-66
2022/03/21 01:10:23;;;;;;;162.83;75.03;;;2.10;90.70;;;;;;5113195;28;20219;-65
2022/03/21 01:12:52;;;;;;;152.90;72.73;;;2.00;90.90;;;;;;5112961;28;20264;-66
2022/03/21 01:15:23;;;;;;;145.67;70.37;;;2.00;91.00;;;;;;5113172;28;20212;-66
2022/03/21 01:17:51;;;;;;;157.00;72.20;;;2.00;90.90;;;;;;5112967;28;20188;-64
2022/03/21 01:20:20;;;;;;;176.67;79.27;;;2.10;90.90;;;;;;5113284;28;20535;-65
2022/03/21 01:22:48;;;;;;;167.07;77.87;;;2.10;91.00;;;;;;5113186;28;20199;-66
2022/03/21 01:25:15;;;;;;;162.20;75.80;;;2.00;91.00;;;;;;5113284;28;20674;-65
2022/03/21 01:27:42;;;;;;;130.27;60.43;;;2.00;91.10;;;;;;5112796;28;20203;-66
2022/03/21 01:30:14;;;;;;;132.90;57.53;;;2.00;91.10;;;;;;5112809;28;20203;-66
2022/03/21 01:32:43;;;;;;;130.57;58.67;;;2.00;91.40;;;;;;5113001;28;20208;-66
2022/03/21 01:35:11;;;;;;;141.83;63.03;;;2.00;92.00;;;;;;5113159;28;20207;-65
2022/03/21 01:37:39;;;;;;;145.77;63.93;;;1.90;91.80;;;;;;5112510;28;20260;-66
2022/03/21 01:40:07;;;;;;;154.10;65.77;;;1.90;92.00;;;;;;5112656;28;20221;-65
2022/03/21 01:42:36;;;;;;;157.47;65.53;;;1.90;92.10;;;;;;5112876;28;20222;-65
2022/03/21 01:45:05;;;;;;;146.80;61.20;;;1.80;92.20;;;;;;5112980;28;20229;-65
2022/03/21 01:47:34;;;;;;;138.73;57.27;;;1.80;92.40;;;;;;5112640;28;20656;-66
2022/03/21 01:50:02;;;;;;;144.33;59.73;;;1.80;92.70;;;;;;5112859;28;20609;-65
2022/03/21 01:52:29;;;;;;;127.83;55.13;;;1.80;92.80;;;;;;5112554;28;20626;-65
2022/03/21 01:57:44;;;;;;;121.90;53.07;;;1.80;93.20;;;;;;5112457;28;20186;-66
2022/03/21 02:00:12;;;;;;;139.73;56.80;;;1.80;93.10;;;;;;5112595;28;20298;-65
2022/03/21 02:02:42;;;;;;;126.30;53.33;;;1.80;93.20;;;;;;5112624;28;20610;-65
2022/03/21 02:05:11;;;;;;;118.90;50.60;;;1.80;93.30;;;;;;5112364;28;20219;-66
2022/03/21 02:07:38;;;;;;;107.13;45.70;;;1.80;93.50;;;;;;5112121;28;20235;-65
2022/03/21 02:10:07;;;;;;;97.40;42.63;;;1.80;93.40;;;;;;5112237;28;20214;-65
2022/03/21 02:12:35;;;;;;;89.40;41.43;;;1.80;93.40;;;;;;5112052;28;20223;-66
2022/03/21 02:15:03;;;;;;;98.73;42.30;;;1.80;93.50;;;;;;5112235;28;20214;-65
2022/03/21 02:17:35;;;;;;;83.83;38.83;;;1.80;93.50;;;;;;5112376;28;20576;-67
2022/03/21 02:20:05;;;;;;;80.03;36.93;;;1.80;93.80;;;;;;5112601;28;20210;-65
2022/03/21 02:22:36;;;;;;;81.90;37.17;;;1.70;93.80;;;;;;5112014;28;20188;-65
2022/03/21 02:25:14;;;;;;;84.23;36.27;;;1.70;93.90;;;;;;5112255;28;20231;-65
2022/03/21 02:27:42;;;;;;;75.17;35.07;;;1.70;94.00;;;;;;5112027;28;20342;-65
2022/03/21 02:30:10;;;;;;;77.47;35.80;;;1.70;94.20;;;;;;5112159;28;20214;-66
2022/03/21 02:32:37;;;;;;;72.67;34.47;;;1.60;94.30;;;;;;5111859;28;20273;-66
2022/03/21 02:35:06;;;;;;;76.53;34.77;;;1.60;94.40;;;;;;5112450;28;20207;-65
2022/03/21 02:37:34;;;;;;;73.80;34.50;;;1.50;94.40;;;;;;5111913;28;20208;-65
2022/03/21 02:40:02;;;;;;;74.60;34.13;;;1.50;94.50;;;;;;5112060;28;20211;-65
2022/03/21 02:42:30;;;;;;;79.60;34.17;;;1.40;94.60;;;;;;5112111;28;20222;-65
2022/03/21 02:44:58;;;;;;;71.47;33.00;;;1.40;94.80;;;;;;5112369;28;20801;-67
2022/03/21 02:47:25;;;;;;;76.43;32.90;;;1.40;94.80;;;;;;5112294;28;20203;-65
2022/03/21 02:49:53;;;;;;;73.07;32.20;;;1.40;94.90;;;;;;5113388;28;20211;-65
2022/03/21 02:52:21;;;;;;;75.67;31.40;;;1.40;94.90;;;;;;5115684;28;20223;-67
2022/03/21 02:54:48;;;;;;;76.20;31.93;;;1.30;95.00;;;;;;5115985;28;20219;-65
2022/03/21 02:57:16;;;;;;;72.63;32.43;;;1.30;95.20;;;;;;5116125;28;20647;-66
2022/03/21 02:59:44;;;;;;;73.23;32.73;;;1.30;95.10;;;;;;5116116;28;20214;-64
2022/03/21 03:02:11;;;;;;;85.63;35.67;;;1.30;95.20;;;;;;5116085;28;20199;-65
2022/03/21 03:04:38;;;;;;;86.27;35.93;;;1.30;95.20;;;;;;5115493;28;20227;-66
2022/03/21 03:07:05;;;;;;;91.43;36.53;;;1.30;95.50;;;;;;5115442;28;20242;-67
2022/03/21 03:09:33;;;;;;;83.47;36.07;;;1.30;95.40;;;;;;5115553;28;20210;-66
2022/03/21 03:12:01;;;;;;;78.23;36.13;;;1.30;95.60;;;;;;5115820;28;20264;-65
2022/03/21 03:14:28;;;;;;;98.33;38.27;;;1.20;95.80;;;;;;5115349;28;20207;-66
2022/03/21 03:16:57;;;;;;;85.57;38.33;;;1.20;95.70;;;;;;5115566;28;20211;-65
2022/03/21 03:19:24;;;;;;;94.87;40.43;;;1.20;95.70;;;;;;5115271;28;20204;-67
2022/03/21 03:21:52;;;;;;;92.00;38.23;;;1.20;95.70;;;;;;5115743;28;20199;-67
2022/03/21 03:24:21;;;;;;;85.60;37.03;;;1.20;95.80;;;;;;5115440;28;20540;-66
2022/03/21 03:26:48;;;;;;;84.70;37.17;;;1.20;95.70;;;;;;5115344;28;20218;-67
2022/03/21 03:29:15;;;;;;;99.47;40.67;;;1.20;95.80;;;;;;5115439;28;20233;-68
2022/03/21 03:31:42;;;;;;;90.00;38.57;;;1.20;95.90;;;;;;5115059;28;20203;-66
2022/03/21 03:34:11;;;;;;;98.20;40.87;;;1.10;96.30;;;;;;5115050;28;20207;-66
2022/03/21 03:36:39;;;;;;;98.10;40.87;;;1.10;96.40;;;;;;5115130;28;20210;-65
2022/03/21 03:39:06;;;;;;;98.93;39.70;;;1.10;96.20;;;;;;5115371;28;20256;-67
2022/03/21 03:41:33;;;;;;;100.53;40.37;;;1.10;96.30;;;;;;5114915;27;20215;-67
2022/03/21 03:44:01;;;;;;;106.47;38.97;;;1.00;96.20;;;;;;5114861;28;20203;-66
2022/03/21 03:46:28;;;;;;;88.50;38.03;;;1.10;96.40;;;;;;5114730;28;20303;-67
2022/03/21 03:48:55;;;;;;;92.80;38.83;;;1.00;96.70;;;;;;5115110;28;20238;-66
2022/03/21 03:51:23;;;;;;;90.43;39.17;;;1.00;96.80;;;;;;5115025;28;20207;-67
2022/03/21 03:53:50;;;;;;;95.30;40.27;;;0.90;97.10;;;;;;5114899;28;20556;-67
2022/03/21 03:56:17;;;;;;;96.23;39.80;;;0.80;97.40;;;;;;5114831;28;20212;-66
2022/03/21 03:58:45;;;;;;;94.20;40.23;;;0.80;97.60;;;;;;5114643;28;20203;-67
2022/03/21 04:01:12;;;;;;;99.77;41.53;;;0.70;97.80;;;;;;5114427;28;20680;-67
2022/03/21 04:03:48;;;;;;;103.37;42.17;;;0.70;97.80;;;;;;5114812;28;20534;-66
2022/03/21 04:06:17;;;;;;;105.93;43.10;;;0.70;97.90;;;;;;5114600;28;20202;-66
2022/03/21 04:08:46;;;;;;;105.43;43.50;;;0.70;98.00;;;;;;5114529;28;20198;-66
2022/03/21 04:11:13;;;;;;;103.73;42.97;;;0.70;98.20;;;;;;5114619;28;20207;-66
2022/03/21 04:13:41;;;;;;;118.87;44.53;;;0.60;98.40;;;;;;5114278;28;20223;-67
2022/03/21 04:16:09;;;;;;;111.40;45.70;;;0.60;98.50;;;;;;5114479;28;20207;-68
2022/03/21 04:18:37;;;;;;;112.07;44.80;;;0.60;98.60;;;;;;5114300;28;20212;-66
2022/03/21 04:21:04;;;;;;;103.77;44.60;;;0.60;98.60;;;;;;5114555;28;20569;-67
2022/03/21 04:23:31;;;;;;;115.10;45.67;;;0.60;98.70;;;;;;5114548;28;20282;-67
2022/03/21 04:26:00;;;;;;;122.67;46.30;;;0.60;98.60;;;;;;5114106;28;20227;-66
2022/03/21 04:28:27;;;;;;;122.13;45.80;;;0.60;98.80;;;;;;5113960;28;20544;-67
2022/03/21 04:30:54;;;;;;;106.33;43.70;;;0.60;99.00;;;;;;5114008;28;20214;-67
2022/03/21 04:33:21;;;;;;;94.80;40.20;;;0.60;98.80;;;;;;5114086;28;20248;-66
2022/03/21 04:35:48;;;;;;;97.33;41.27;;;0.70;98.70;;;;;;5113890;28;20210;-67
2022/03/21 04:38:16;;;;;;;98.53;40.70;;;0.70;98.90;;;;;;5113725;28;20203;-68
2022/03/21 04:40:45;;;;;;;95.10;40.67;;;0.80;99.10;;;;;;5114177;28;20269;-67
2022/03/21 04:43:15;;;;;;;99.20;40.87;;;0.80;99.20;;;;;;5113919;28;20199;-67
2022/03/21 04:45:43;;;;;;;93.27;39.40;;;0.80;99.30;;;;;;5114232;28;20207;-68
2022/03/21 04:48:11;;;;;;;90.83;37.30;;;0.70;99.50;;;;;;5113841;28;20200;-66
2022/03/21 04:50:38;;;;;;;90.37;38.67;;;0.80;99.60;;;;;;5113569;28;20207;-67
2022/03/21 04:53:06;;;;;;;88.90;37.67;;;0.80;99.80;;;;;;5113653;28;20583;-66
2022/03/21 04:55:34;;;;;;;94.23;38.13;;;0.70;99.90;;;;;;5113592;27;20237;-67
2022/03/21 04:58:01;;;;;;;95.77;40.13;;;0.80;99.90;;;;;;5113572;28;20214;-66
2022/03/21 05:00:30;;;;;;;93.93;39.20;;;0.80;99.90;;;;;;5113782;28;20234;-68
2022/03/21 05:02:57;;;;;;;93.77;38.67;;;0.80;99.90;;;;;;5113438;27;20206;-67
2022/03/21 05:05:25;;;;;;;95.33;39.53;;;0.80;99.90;;;;;;5113391;27;20223;-67
2022/03/21 05:07:54;;;;;;;89.93;38.13;;;0.90;99.90;;;;;;5113188;28;20334;-66
2022/03/21 05:10:22;;;;;;;95.40;37.03;;;0.90;99.90;;;;;;5113388;28;20207;-66
2022/03/21 05:12:50;;;;;;;74.10;35.00;;;0.90;99.90;;;;;;5112642;28;20223;-67
2022/03/21 05:15:17;;;;;;;77.17;34.93;;;0.90;99.90;;;;;;5112958;28;20203;-66
2022/03/21 05:17:46;;;;;;;78.80;34.67;;;1.00;99.90;;;;;;5113129;28;20221;-66
2022/03/21 05:20:17;;;;;;;79.43;35.63;;;1.10;99.90;;;;;;5113290;28;20561;-66
2022/03/21 05:30:57;;;;;;;79.67;33.97;;;1.10;99.90;;;;;;5113091;28;20194;-67
2022/03/21 05:31:04;;;;;;;77.67;36.60;;;1.30;99.90;;;;;;5112827;28;20179;-67
2022/03/21 05:36:19;;;;;;;92.43;38.33;;;1.40;99.90;;;;;;5112582;28;20264;-67
2022/03/21 05:38:46;;;;;;;82.03;37.57;;;1.50;99.90;;;;;;5112980;28;20687;-66
2022/03/21 05:41:13;;;;;;;96.30;39.77;;;1.50;99.90;;;;;;5112510;28;20206;-68
2022/03/21 05:43:40;;;;;;;80.47;37.20;;;1.60;99.90;;;;;;5112591;28;20199;-66
2022/03/21 05:46:07;;;;;;;79.20;37.00;;;1.70;99.90;;;;;;5112682;28;20199;-66
2022/03/21 05:48:54;;;;;;;75.23;35.80;;;1.70;99.90;;;;;;5112726;28;20203;-66
2022/03/21 05:51:23;;;;;;;80.03;36.67;;;1.80;99.90;;;;;;5112930;28;20187;-67
2022/03/21 05:53:51;;;;;;;80.10;36.37;;;1.90;99.90;;;;;;5112621;28;20633;-66
2022/03/21 05:56:19;;;;;;;80.90;36.10;;;2.00;99.90;;;;;;5112711;28;20294;-67
2022/03/21 05:58:46;;;;;;;70.97;33.57;;;2.20;99.90;;;;;;5112632;28;20207;-67
2022/03/21 06:01:15;;;;;;;71.13;32.90;;;2.30;99.90;;;;;;5112147;28;20207;-67
2022/03/21 06:03:44;;;;;;;74.57;32.77;;;2.40;99.90;;;;;;5112540;28;20199;-66
2022/03/21 06:06:11;;;;;;;63.23;32.13;;;2.50;99.90;;;;;;5112072;28;20203;-66
2022/03/21 06:08:38;;;;;;;65.03;31.67;;;2.60;99.90;;;;;;5112178;28;20594;-66
2022/03/21 06:11:08;;;;;;;63.57;30.63;;;2.80;99.90;;;;;;5112066;28;20199;-66
2022/03/21 06:13:36;;;;;;;58.23;29.47;;;2.90;99.90;;;;;;5112118;28;20225;-67
2022/03/21 06:16:04;;;;;;;55.90;28.07;;;3.00;99.90;;;;;;5112017;28;20217;-66
2022/03/21 06:18:32;;;;;;;54.17;27.20;;;3.10;99.90;;;;;;5112473;28;20199;-69
2022/03/21 06:21:01;;;;;;;51.73;26.50;;;3.30;99.90;;;;;;5112388;28;20579;-67
2022/03/21 06:23:29;;;;;;;49.00;24.57;;;3.40;99.90;;;;;;5112936;28;20554;-67
2022/03/21 06:25:58;;;;;;;53.63;26.57;;;3.50;99.90;;;;;;5116432;28;20229;-67
2022/03/21 06:28:26;;;;;;;47.93;25.37;;;3.60;99.90;;;;;;5116323;28;20391;-66
2022/03/21 06:30:54;;;;;;;54.33;25.37;;;3.70;99.90;;;;;;5116017;28;20207;-67
2022/03/21 06:33:22;;;;;;;49.67;23.73;;;3.90;99.90;;;;;;5116463;28;20509;-67
2022/03/21 06:35:50;;;;;;;45.03;23.23;;;4.00;99.90;;;;;;5116013;28;20210;-67
2022/03/21 06:38:18;;;;;;;46.87;24.53;;;4.10;99.90;;;;;;5116390;28;20234;-67
2022/03/21 06:40:45;;;;;;;44.57;22.83;;;4.20;99.90;;;;;;5116053;28;20207;-69
2022/03/21 06:43:15;;;;;;;52.47;23.67;;;4.30;99.90;;;;;;5116055;28;20203;-66
2022/03/21 06:45:42;;;;;;;48.93;23.07;;;4.40;99.90;;;;;;5116274;28;20210;-67
2022/03/21 06:48:10;;;;;;;48.40;23.03;;;4.40;99.90;;;;;;5115690;28;20206;-67
2022/03/21 06:50:37;;;;;;;50.87;24.97;;;4.50;99.90;;;;;;5116274;28;20255;-67
2022/03/21 06:53:04;;;;;;;55.57;25.77;;;4.60;99.90;;;;;;5115530;28;20226;-67
2022/03/21 06:55:33;;;;;;;62.93;26.60;;;4.80;99.90;;;;;;5115934;28;20196;-66
2022/03/21 06:58:01;;;;;;;63.47;27.73;;;4.80;99.90;;;;;;5115665;28;20199;-67
2022/03/21 07:00:28;;;;;;;63.50;27.37;;;4.90;99.90;;;;;;5115665;28;20238;-67
2022/03/21 07:02:55;;;;;;;66.23;28.00;;;5.00;99.90;;;;;;5115558;28;20209;-66
2022/03/21 07:05:22;;;;;;;67.90;27.67;;;5.10;99.90;;;;;;5115432;28;20231;-66
2022/03/21 07:07:52;;;;;;;76.03;30.83;;;5.30;99.90;;;;;;5115328;28;20235;-67
2022/03/21 07:10:19;;;;;;;82.10;31.77;;;5.30;99.90;;;;;;5115807;28;20555;-66
2022/03/21 07:12:48;;;;;;;82.50;32.33;;;5.40;99.90;;;;;;5115207;28;20208;-67
2022/03/21 07:15:15;;;;;;;94.83;35.30;;;5.40;99.90;;;;;;5115339;28;20212;-67
2022/03/21 07:17:42;;;;;;;85.23;33.13;;;5.50;99.90;;;;;;5115517;28;20199;-67
2022/03/21 07:20:11;;;;;;;101.87;36.57;;;5.60;99.90;;;;;;5115520;28;20279;-66
2022/03/21 07:22:38;;;;;;;89.90;33.53;;;5.70;99.90;;;;;;5115616;28;20203;-67
2022/03/21 07:25:06;;;;;;;100.03;35.50;;;5.80;99.80;;;;;;5115317;28;20203;-66
2022/03/21 07:27:34;;;;;;;92.73;36.73;;;5.80;99.70;;;;;;5115522;28;20203;-66
2022/03/21 07:30:04;;;;;;;103.50;36.57;;;6.00;99.60;;;;;;5115043;28;20207;-67
2022/03/21 07:32:31;;;;;;;97.03;37.33;;;6.10;99.40;;;;;;5115105;28;20211;-66
2022/03/21 07:34:58;;;;;;;103.53;37.60;;;6.10;99.20;;;;;;5114483;28;20219;-66
2022/03/21 07:37:25;;;;;;;98.53;36.40;;;6.20;99.20;;;;;;5114991;28;20624;-66
2022/03/21 07:39:52;;;;;;;99.83;36.73;;;6.30;98.90;;;;;;5114790;28;20203;-66
2022/03/21 07:42:20;;;;;;;108.83;38.47;;;6.40;98.60;;;;;;5114877;28;20203;-67
2022/03/21 07:47:34;;;;;;;133.27;43.83;;;6.60;98.30;;;;;;5114989;28;20178;-65
2022/03/21 07:50:01;;;;;;;139.87;47.80;;;6.70;98.30;;;;;;5114719;28;20206;-66
2022/03/21 07:52:28;;;;;;;112.83;40.30;;;6.80;98.20;;;;;;5114709;28;20203;-67
2022/03/21 07:54:55;;;;;;;126.93;43.27;;;6.90;97.80;;;;;;5114401;28;20231;-67
2022/03/21 07:57:25;;;;;;;110.77;39.27;;;7.00;97.60;;;;;;5114753;28;20203;-68
2022/03/21 07:59:52;;;;;;;79.13;29.33;;;7.10;97.40;;;;;;5114983;28;20200;-67
2022/03/21 08:02:19;;;;;;;87.43;33.43;;;7.10;97.10;;;;;;5114853;28;20678;-67
2022/03/21 08:04:49;;;;;;;80.80;31.23;;;7.20;97.20;;;;;;5114268;28;20276;-68
2022/03/21 08:07:16;;;;;;;71.93;29.13;;;7.20;97.10;;;;;;5114220;28;20239;-67
2022/03/21 08:09:43;;;;;;;65.53;25.10;;;7.30;97.10;;;;;;5114265;28;20210;-66
2022/03/21 08:12:11;;;;;;;53.80;21.97;;;7.40;97.00;;;;;;5114707;28;20663;-66
2022/03/21 08:14:38;;;;;;;51.60;21.70;;;7.50;96.80;;;;;;5114079;28;20231;-68
2022/03/21 08:17:06;;;;;;;42.10;19.73;;;7.60;96.70;;;;;;5114247;28;20207;-66
2022/03/21 08:19:33;;;;;;;37.47;17.53;;;7.70;96.50;;;;;;5114234;28;20215;-67
2022/03/21 08:22:04;;;;;;;35.97;15.90;;;7.70;96.50;;;;;;5114446;28;20669;-68
2022/03/21 08:24:33;;;;;;;31.23;15.27;;;7.80;96.20;;;;;;5114187;28;20241;-66
2022/03/21 08:27:00;;;;;;;34.03;15.17;;;7.90;96.10;;;;;;5114090;28;20293;-66
2022/03/21 08:29:27;;;;;;;30.30;13.83;;;8.00;96.00;;;;;;5114302;28;20211;-66
2022/03/21 08:31:55;;;;;;;22.47;10.97;;;8.10;95.70;;;;;;5113805;28;20203;-67
2022/03/21 08:34:22;;;;;;;17.80;9.53;;;8.10;95.10;;;;;;5113885;28;20223;-66
2022/03/21 08:36:50;;;;;;;18.87;9.70;;;8.20;94.90;;;;;;5114040;28;20699;-66
2022/03/21 08:39:18;;;;;;;15.20;7.40;;;8.30;94.80;;;;;;5114063;28;20203;-67
2022/03/21 08:41:45;;;;;;;16.47;8.17;;;8.40;94.40;;;;;;5113587;27;20457;-66
2022/03/21 08:44:12;;;;;;;13.57;7.07;;;8.40;94.30;;;;;;5113772;28;20200;-66
2022/03/21 08:46:39;;;;;;;9.00;5.30;;;8.50;94.40;;;;;;5113385;28;20655;-68
2022/03/21 08:49:26;;;;;;;11.37;6.17;;;8.60;94.00;;;;;;5113440;28;20207;-66
2022/03/21 08:51:54;;;;;;;12.33;5.57;;;8.70;94.00;;;;;;5113909;28;20202;-67
2022/03/21 08:54:22;;;;;;;13.57;6.20;;;8.70;93.40;;;;;;5113986;28;20242;-67
2022/03/21 08:56:49;;;;;;;19.83;8.50;;;8.80;93.10;;;;;;5113737;28;20550;-68
2022/03/21 08:59:16;;;;;;;10.33;4.77;;;8.80;93.10;;;;;;5113399;28;20206;-67
2022/03/21 09:01:44;;;;;;;18.60;6.87;;;8.90;92.90;;;;;;5113496;28;20743;-67
2022/03/21 09:04:12;;;;;;;13.97;6.23;;;8.90;93.00;;;;;;5113163;28;20227;-67
2022/03/21 09:06:39;;;;;;;11.70;6.07;;;9.00;92.70;;;;;;5113220;28;20235;-66
2022/03/21 09:09:07;;;;;;;17.67;6.00;;;9.10;92.70;;;;;;5113660;28;20194;-67
2022/03/21 09:11:35;;;;;;;11.03;5.67;;;9.20;92.50;;;;;;5113287;28;20208;-66
2022/03/21 09:14:02;;;;;;;19.93;8.17;;;9.30;92.40;;;;;;5113385;28;20580;-67
2022/03/21 09:16:30;;;;;;;16.77;7.70;;;9.40;92.50;;;;;;5112950;28;20211;-66
2022/03/21 09:18:57;;;;;;;15.43;6.43;;;9.40;92.50;;;;;;5113354;28;20636;-66
2022/03/21 09:21:24;;;;;;;15.57;7.00;;;9.50;92.30;;;;;;5113134;28;20257;-67
2022/03/21 09:23:52;;;;;;;21.37;7.90;;;9.60;92.20;;;;;;5113344;28;20205;-67
2022/03/21 09:26:21;;;;;;;21.00;7.63;;;9.60;92.10;;;;;;5112879;28;20203;-67
2022/03/21 09:28:59;;;;;;;25.37;8.73;;;9.70;92.20;;;;;;5113039;28;20290;-68
2022/03/21 09:31:27;;;;;;;22.90;8.33;;;9.70;92.10;;;;;;5112605;28;20218;-67
2022/03/21 09:33:54;;;;;;;27.77;9.70;;;9.80;92.00;;;;;;5113002;28;20223;-66
2022/03/21 09:36:22;;;;;;;24.87;10.30;;;9.90;91.70;;;;;;5112937;28;20222;-66
2022/03/21 09:38:49;;;;;;;36.30;12.80;;;10.00;91.70;;;;;;5112633;28;20217;-67
2022/03/21 09:41:22;;;;;;;39.70;14.20;;;10.00;91.40;;;;;;5112493;28;20214;-67
2022/03/21 09:43:51;;;;;;;41.50;14.83;;;10.10;91.00;;;;;;5112425;28;20198;-69
2022/03/21 09:46:20;;;;;;;36.87;13.90;;;10.20;91.00;;;;;;5112748;28;20215;-67
2022/03/21 09:48:47;;;;;;;19.80;7.30;;;10.30;90.30;;;;;;5112428;28;20210;-68
2022/03/21 09:51:17;;;;;;;18.30;7.30;;;10.40;90.10;;;;;;5112414;28;20256;-67
2022/03/21 09:53:44;;;;;;;17.90;5.67;;;10.40;90.10;;;;;;5112426;28;20540;-66
2022/03/21 09:56:11;;;;;;;9.40;4.37;;;10.50;90.10;;;;;;5112637;28;20206;-67
2022/03/21 09:58:38;;;;;;;9.07;3.83;;;10.60;89.70;;;;;;5111768;28;20203;-68
2022/03/21 10:01:07;;;;;;;19.03;6.93;;;10.70;90.10;;;;;;5112613;28;20210;-67
2022/03/21 10:03:35;;;;;;;15.70;6.07;;;10.70;88.70;;;;;;5111960;28;20227;-67
2022/03/21 10:06:02;;;;;;;8.40;3.60;;;10.70;88.40;;;;;;5112545;28;20631;-67
2022/03/21 10:08:30;;;;;;;11.03;4.53;;;10.70;89.10;;;;;;5112027;28;20247;-66
2022/03/21 10:11:01;;;;;;;12.27;5.17;;;10.70;88.10;;;;;;5112216;28;20204;-66
2022/03/21 10:13:30;;;;;;;10.77;4.83;;;10.70;88.50;;;;;;5112260;28;20222;-67
2022/03/21 10:16:10;;;;;;;14.27;5.10;;;10.70;88.40;;;;;;5112319;28;20227;-66
2022/03/21 10:18:37;;;;;;;9.90;3.83;;;10.80;88.40;;;;;;5112048;28;20211;-67
2022/03/21 10:21:11;;;;;;;9.67;3.93;;;10.90;89.00;;;;;;5112189;28;20215;-67
2022/03/21 10:23:38;;;;;;;10.70;3.87;;;11.00;88.50;;;;;;5112271;28;20695;-66
2022/03/21 10:26:24;;;;;;;9.90;4.17;;;11.00;88.40;;;;;;5112391;28;20278;-69
2022/03/21 10:28:54;;;;;;;9.83;3.93;;;11.00;88.20;;;;;;5112412;28;20608;-68
2022/03/21 10:31:36;;;;;;;7.70;3.73;;;11.00;88.30;;;;;;5111839;28;20203;-67
2022/03/21 10:34:05;;;;;;;6.77;3.10;;;11.10;88.80;;;;;;5112530;28;20195;-67
2022/03/21 10:36:32;;;;;;;6.27;3.37;;;11.20;87.70;;;;;;5112100;28;20651;-67
2022/03/21 10:39:10;;;;;;;7.57;2.80;;;11.20;88.10;;;;;;5112230;28;20635;-66
2022/03/21 10:41:39;;;;;;;6.37;3.17;;;11.20;88.30;;;;;;5112049;28;20289;-68
2022/03/21 10:44:08;;;;;;;6.00;2.90;;;11.20;87.90;;;;;;5111823;28;20210;-68
2022/03/21 10:46:37;;;;;;;5.23;2.80;;;11.20;87.70;;;;;;5111590;28;20218;-66
2022/03/21 10:49:08;;;;;;;5.97;2.93;;;11.20;88.10;;;;;;5112081;28;20752;-67
2022/03/21 10:51:48;;;;;;;7.07;3.33;;;11.20;87.90;;;;;;5111994;28;20632;-68
2022/03/21 10:54:41;;;;;;;8.10;3.57;;;11.20;88.10;;;;;;5111516;28;20223;-68
2022/03/21 10:57:25;;;;;;;6.30;3.57;;;11.30;88.10;;;;;;5111662;28;20212;-66
2022/03/21 10:59:53;;;;;;;9.33;4.07;;;11.20;87.30;;;;;;5111791;28;20195;-66
2022/03/21 11:02:21;;;;;;;9.77;4.47;;;11.20;87.50;;;;;;5111697;28;20567;-67
2022/03/21 11:04:50;;;;;;;10.47;4.60;;;11.20;87.70;;;;;;5111629;28;20230;-67
2022/03/21 11:07:17;;;;;;;13.23;4.50;;;11.20;88.00;;;;;;5111497;28;20630;-66
2022/03/21 11:09:44;;;;;;;6.70;3.63;;;11.30;87.40;;;;;;5111921;28;20559;-67
2022/03/21 11:12:11;;;;;;;8.20;3.60;;;11.30;87.40;;;;;;5114914;28;20207;-67
2022/03/21 11:14:42;;;;;;;6.47;3.10;;;11.30;87.10;;;;;;5115703;28;20223;-67
2022/03/21 11:17:09;;;;;;;8.83;3.50;;;11.30;87.20;;;;;;5115343;28;20211;-67
2022/03/21 11:19:37;;;;;;;9.97;3.63;;;11.30;87.50;;;;;;5115562;28;20207;-67
2022/03/21 11:22:05;;;;;;;7.83;3.27;;;11.30;87.40;;;;;;5115544;28;20680;-67
2022/03/21 11:24:34;;;;;;;9.63;3.60;;;11.30;87.70;;;;;;5115017;28;20196;-67
2022/03/21 11:27:20;;;;;;;5.97;3.13;;;11.30;87.80;;;;;;5115485;28;20207;-68
2022/03/21 11:30:00;;;;;;;8.57;3.50;;;11.40;87.90;;;;;;5115362;28;20639;-68
2022/03/21 11:32:39;;;;;;;7.70;3.23;;;11.50;87.30;;;;;;5115272;28;20644;-66
2022/03/21 11:35:13;;;;;;;7.20;3.03;;;11.50;88.00;;;;;;5114998;28;20207;-66
2022/03/21 11:37:42;;;;;;;7.83;3.50;;;11.60;87.50;;;;;;5115064;28;20237;-67
2022/03/21 11:40:29;;;;;;;5.87;3.17;;;11.70;87.80;;;;;;5115194;28;20227;-67
2022/03/21 11:43:17;;;;;;;6.57;3.30;;;11.70;87.70;;;;;;5115387;28;20191;-67
2022/03/21 11:45:45;;;;;;;6.43;3.10;;;11.70;87.20;;;;;;5114794;28;20199;-67
2022/03/21 11:48:35;;;;;;;5.57;3.13;;;11.70;86.90;;;;;;5114996;28;20207;-66
2022/03/21 11:51:44;;;;;;;12.93;3.67;;;11.70;86.70;;;;;;5115122;28;20204;-67
2022/03/21 11:54:29;;;;;;;5.57;3.20;;;11.70;86.80;;;;;;5106737;28;20207;-67
2022/03/21 11:57:01;;;;;;;8.27;3.63;;;11.70;86.70;;;;;;5114781;28;20192;-67
2022/03/21 11:59:49;;;;;;;10.10;3.80;;;11.60;86.80;;;;;;5114490;28;20270;-66
2022/03/21 12:02:56;;;;;;;6.90;3.37;;;11.70;87.30;;;;;;5114679;28;20199;-67
2022/03/21 12:05:56;;;;;;;10.50;3.67;;;11.70;87.10;;;;;;5114319;28;20191;-67
2022/03/21 12:08:48;;;;;;;8.27;3.50;;;11.70;87.40;;;;;;5114186;28;20274;-66
2022/03/21 12:11:49;;;;;;;5.00;3.37;;;11.70;87.40;;;;;;5114369;28;20259;-66
2022/03/21 12:14:30;;;;;;;9.40;3.80;;;11.80;87.50;;;;;;5114175;28;20237;-68
2022/03/21 12:17:41;;;;;;;8.47;3.80;;;11.80;86.90;;;;;;5114671;28;20191;-67
2022/03/21 12:20:11;;;;;;;7.87;4.10;;;11.90;87.00;;;;;;5114109;28;20241;-66
2022/03/21 12:22:47;;;;;;;9.87;4.13;;;11.90;86.80;;;;;;5114165;28;20207;-67
2022/03/21 12:25:17;;;;;;;8.43;4.70;;;11.90;87.20;;;;;;5114372;28;20279;-67
2022/03/21 12:27:47;;;;;;;11.50;5.37;;;12.00;86.80;;;;;;5114129;28;20268;-66
2022/03/21 12:30:35;;;;;;;12.93;7.03;;;12.00;86.80;;;;;;5113595;28;20237;-66
2022/03/21 12:33:19;;;;;;;16.80;8.80;;;12.00;86.40;;;;;;5114129;28;20596;-67
2022/03/21 12:36:05;;;;;;;14.23;8.50;;;12.10;86.60;;;;;;5111344;28;20283;-67
2022/03/21 12:38:40;;;;;;;20.33;10.10;;;12.10;86.70;;;;;;5113889;28;20195;-68
2022/03/21 12:41:13;;;;;;;14.23;8.33;;;12.10;86.60;;;;;;5113648;28;20246;-67
2022/03/21 12:43:52;;;;;;;17.00;8.40;;;12.20;86.90;;;;;;5114149;28;20624;-67
2022/03/21 12:46:23;;;;;;;11.43;6.47;;;12.10;86.80;;;;;;5113570;28;20183;-67
2022/03/21 12:48:55;;;;;;;11.67;6.17;;;12.20;86.90;;;;;;5113674;28;20207;-67
2022/03/21 12:51:31;;;;;;;10.40;6.07;;;12.20;87.00;;;;;;5113576;28;20238;-67
2022/03/21 12:54:02;;;;;;;12.60;6.17;;;12.30;87.10;;;;;;5113400;28;20187;-67
2022/03/21 12:56:30;;;;;;;10.83;6.00;;;12.30;86.40;;;;;;5113518;28;20207;-68
2022/03/21 12:59:01;;;;;;;9.80;5.90;;;12.40;86.50;;;;;;5113240;28;20527;-67
2022/03/21 13:01:31;;;;;;;9.10;5.20;;;12.40;86.50;;;;;;5113394;28;20187;-67
2022/03/21 13:12:12;;;;;;;9.97;5.33;;;12.50;86.20;;;;;;5113228;28;20183;-67